Time;durP1;ratioP1;P1;durP2;ratioP2;P2;SDS_P1;SDS_P2;PMS_P1;PMS_P2;Temp;Humidity;BMP_temperature;BMP_pressure;BME280_temperature;BME280_humidity;BME280_pressure;Samples;Min_cycle;Max_cycle;Signal;HPM_P1;HPM_P2
2021/11/26 00:01:10;;;;;;;5.25;0.90;;;;;;;3.55;100.00;100879.78;5035459;28;20034;-73
2021/11/26 00:03:36;;;;;;;8.40;1.25;;;;;;;3.53;100.00;100868.50;5035242;28;20034;-73
2021/11/26 00:06:01;;;;;;;8.55;1.10;;;;;;;3.50;100.00;100856.38;5035582;28;20128;-73
2021/11/26 00:08:27;;;;;;;5.90;1.00;;;;;;;3.47;100.00;100863.63;5035591;28;20040;-74
2021/11/26 00:10:52;;;;;;;6.60;0.98;;;;;;;3.43;100.00;100859.47;5035432;28;20037;-73
2021/11/26 00:13:18;;;;;;;9.15;1.20;;;;;;;3.37;100.00;100847.53;5035411;28;20421;-73
2021/11/26 00:15:43;;;;;;;10.45;1.30;;;;;;;3.34;100.00;100847.72;5035024;28;20080;-73
2021/11/26 00:18:17;;;;;;;7.38;1.08;;;;;;;3.28;100.00;100845.47;5035497;28;20374;-73
2021/11/26 00:20:43;;;;;;;12.50;1.35;;;;;;;3.23;100.00;100834.41;5034855;28;20041;-73
2021/11/26 00:23:08;;;;;;;11.52;2.03;;;;;;;3.21;100.00;100841.50;5035066;28;20033;-74
2021/11/26 00:25:35;;;;;;;9.95;1.23;;;;;;;3.21;100.00;100829.22;5000785;28;20034;-74
2021/11/26 00:28:01;;;;;;;13.80;1.88;;;;;;;3.21;100.00;100831.00;5035183;28;20079;-73
2021/11/26 00:30:27;;;;;;;10.32;1.65;;;;;;;3.20;100.00;100829.31;5035242;28;20038;-73
2021/11/26 00:32:53;;;;;;;9.88;1.80;;;;;;;3.26;100.00;100831.56;5034648;28;20034;-74
2021/11/26 00:35:18;;;;;;;6.13;1.20;;;;;;;3.33;100.00;100831.09;5035004;28;20034;-73
2021/11/26 00:37:44;;;;;;;12.45;1.65;;;;;;;3.49;100.00;100835.44;5034481;28;20041;-73
2021/11/26 00:40:10;;;;;;;10.32;1.30;;;;;;;3.65;100.00;100838.81;5034849;28;20041;-73
2021/11/26 00:42:35;;;;;;;9.18;2.30;;;;;;;3.69;99.26;100823.69;5034073;28;20033;-73
2021/11/26 00:45:01;;;;;;;10.35;1.80;;;;;;;3.63;99.24;100805.66;5034769;28;20513;-72
2021/11/26 00:47:26;;;;;;;7.85;1.48;;;;;;;3.56;99.85;100807.81;5034562;28;20482;-72
2021/11/26 00:49:52;;;;;;;14.32;1.63;;;;;;;3.49;100.00;100799.47;5034138;28;20041;-72
2021/11/26 00:52:18;;;;;;;15.45;1.90;;;;;;;3.45;100.00;100799.72;5034754;28;20106;-72
2021/11/26 00:54:44;;;;;;;13.57;1.33;;;;;;;3.40;100.00;100784.22;5034334;28;20034;-71
2021/11/26 00:57:10;;;;;;;15.27;2.33;;;;;;;3.39;100.00;100793.06;5016453;28;20029;-72
2021/11/26 00:59:37;;;;;;;17.38;1.73;;;;;;;3.37;100.00;100788.84;5034086;28;20076;-73
2021/11/26 01:02:04;;;;;;;15.40;1.52;;;;;;;3.34;100.00;100785.47;5034576;28;20026;-72
2021/11/26 01:04:30;;;;;;;11.10;2.20;;;;;;;3.31;100.00;100780.41;5034446;28;20504;-72
2021/11/26 01:06:55;;;;;;;16.13;1.50;;;;;;;3.29;100.00;100776.16;5033895;28;20112;-72
2021/11/26 01:09:21;;;;;;;15.48;1.92;;;;;;;3.23;100.00;100772.13;5034509;28;20382;-72
2021/11/26 01:11:46;;;;;;;8.80;1.70;;;;;;;3.17;100.00;100767.22;5033543;28;20037;-72
2021/11/26 01:14:11;;;;;;;10.25;1.10;;;;;;;3.10;100.00;100758.84;5034533;28;20116;-72
2021/11/26 01:16:37;;;;;;;10.45;1.80;;;;;;;3.08;100.00;100768.63;5033710;28;20030;-72
2021/11/26 01:19:02;;;;;;;5.70;1.17;;;;;;;3.06;100.00;100760.00;5034070;28;20030;-71
2021/11/26 01:21:28;;;;;;;11.02;1.55;;;;;;;3.08;100.00;100750.22;5033951;28;20437;-71
2021/11/26 01:23:53;;;;;;;7.80;1.77;;;;;;;3.07;100.00;100745.91;5033430;28;20389;-72
2021/11/26 01:26:19;;;;;;;14.73;1.75;;;;;;;3.06;100.00;100740.72;5033555;28;20135;-72
2021/11/26 01:28:46;;;;;;;16.77;1.60;;;;;;;3.02;100.00;100740.09;5015736;28;20036;-73
2021/11/26 01:31:13;;;;;;;12.02;1.48;;;;;;;2.99;100.00;100740.28;5033797;28;20037;-72
2021/11/26 01:33:38;;;;;;;11.88;2.17;;;;;;;2.96;100.00;100732.56;5033480;28;20029;-72
2021/11/26 01:36:04;;;;;;;14.98;1.60;;;;;;;2.97;100.00;100729.00;5033630;28;20175;-72
2021/11/26 01:38:29;;;;;;;12.20;1.80;;;;;;;2.99;100.00;100727.13;5033324;28;20112;-72
2021/11/26 01:40:55;;;;;;;11.50;1.70;;;;;;;3.04;100.00;100737.38;5032577;28;20040;-72
2021/11/26 01:43:21;;;;;;;12.57;1.80;;;;;;;3.16;100.00;100736.59;5033367;28;20482;-72
2021/11/26 01:45:49;;;;;;;19.33;2.15;;;;;;;3.30;100.00;100725.22;5033176;28;20037;-73
2021/11/26 01:48:16;;;;;;;17.15;2.38;;;;;;;3.36;100.00;100732.78;5033360;28;20031;-72
2021/11/26 01:50:42;;;;;;;12.77;1.50;;;;;;;3.38;100.00;100720.34;5032995;28;20041;-73
2021/11/26 01:53:08;;;;;;;10.32;1.52;;;;;;;3.39;100.00;100716.78;5033617;28;20120;-75
2021/11/26 01:55:33;;;;;;;7.22;1.10;;;;;;;3.36;100.00;100717.00;5033299;28;20099;-72
2021/11/26 01:57:59;;;;;;;7.25;1.10;;;;;;;3.33;100.00;100718.00;5032701;28;20030;-72
2021/11/26 02:00:29;;;;;;;12.82;1.88;;;;;;;3.32;99.35;100712.84;5033389;28;20045;-72
2021/11/26 02:02:54;;;;;;;11.20;1.50;;;;;;;3.30;99.09;100709.44;5032424;28;20032;-72
2021/11/26 02:05:20;;;;;;;8.82;1.23;;;;;;;3.30;96.86;100696.31;5033499;28;20029;-72
2021/11/26 02:07:45;;;;;;;6.15;1.30;;;;;;;3.24;97.43;100683.53;5031778;28;20492;-72
2021/11/26 02:10:11;;;;;;;12.20;1.95;;;;;;;3.15;98.24;100670.03;5015769;28;20083;-72
2021/11/26 02:12:36;;;;;;;8.45;1.63;;;;;;;3.10;98.58;100664.22;5054436;22;20049;-72
2021/11/26 02:15:02;;;;;;;8.82;2.15;;;;;;;3.06;98.48;100657.47;5052610;28;20036;-72
2021/11/26 02:17:28;;;;;;;9.57;1.95;;;;;;;3.04;99.39;100656.72;5052619;28;20090;-72
2021/11/26 02:19:55;;;;;;;8.73;2.00;;;;;;;3.01;99.14;100646.38;5034454;28;20037;-72
2021/11/26 02:22:20;;;;;;;16.85;2.30;;;;;;;2.94;99.13;100640.69;5052763;28;20037;-72
2021/11/26 02:24:46;;;;;;;14.68;2.20;;;;;;;2.87;99.39;100628.84;5052466;28;20110;-73
2021/11/26 02:27:17;;;;;;;9.88;1.80;;;;;;;2.78;99.20;100625.00;5052776;28;20058;-73
2021/11/26 02:29:43;;;;;;;10.75;2.03;;;;;;;2.69;99.25;100612.44;5034843;28;20037;-73
2021/11/26 02:32:09;;;;;;;10.98;1.65;;;;;;;2.58;99.67;100612.22;5052437;28;20033;-73
2021/11/26 02:34:34;;;;;;;18.77;2.03;;;;;;;2.45;100.00;100597.22;5052629;28;20025;-73
2021/11/26 02:37:00;;;;;;;9.93;2.00;;;;;;;2.36;100.00;100594.28;5052162;28;20037;-73
2021/11/26 02:39:25;;;;;;;13.45;2.30;;;;;;;2.28;100.00;100581.63;5052260;28;20473;-73
2021/11/26 02:41:51;;;;;;;17.30;2.00;;;;;;;2.24;100.00;100578.34;5052174;28;20029;-73
2021/11/26 02:44:16;;;;;;;8.93;1.52;;;;;;;2.24;100.00;100572.25;5052323;28;20388;-73
2021/11/26 02:46:42;;;;;;;19.30;1.80;;;;;;;2.25;100.00;100571.31;5052564;28;20033;-73
2021/11/26 02:49:08;;;;;;;15.05;2.58;;;;;;;2.29;100.00;100570.19;5034213;28;20029;-73
2021/11/26 02:51:34;;;;;;;11.75;2.10;;;;;;;2.36;100.00;100561.00;5052559;28;20119;-74
2021/11/26 02:54:00;;;;;;;14.75;1.77;;;;;;;2.44;100.00;100561.38;5051926;28;20041;-73
2021/11/26 02:56:26;;;;;;;10.15;2.25;;;;;;;2.47;100.00;100550.69;5052397;28;20418;-73
2021/11/26 02:58:52;;;;;;;18.67;2.78;;;;;;;2.47;100.00;100547.22;5051697;28;20044;-73
2021/11/26 03:01:18;;;;;;;17.67;3.17;;;;;;;2.47;100.00;100549.84;5052405;28;20033;-73
2021/11/26 03:03:43;;;;;;;15.90;2.78;;;;;;;2.44;100.00;100536.91;5052345;28;20475;-73
2021/11/26 03:06:09;;;;;;;19.58;2.20;;;;;;;2.49;100.00;100541.88;5052001;28;20071;-73
2021/11/26 03:08:35;;;;;;;15.80;2.72;;;;;;;2.55;100.00;100531.81;5052358;28;20064;-73
2021/11/26 03:11:02;;;;;;;11.32;1.98;;;;;;;2.67;99.06;100524.97;5051610;28;20385;-73
2021/11/26 03:13:28;;;;;;;18.65;2.45;;;;;;;2.75;97.59;100524.50;5052019;28;20139;-73
2021/11/26 03:15:53;;;;;;;17.70;2.92;;;;;;;2.77;96.69;100514.72;5051788;28;20128;-73
2021/11/26 03:18:20;;;;;;;10.93;2.05;;;;;;;2.75;96.48;100514.00;5051997;28;20393;-73
2021/11/26 03:20:47;;;;;;;15.70;2.00;;;;;;;2.74;96.76;100507.03;5056110;28;20458;-73
2021/11/26 03:23:13;;;;;;;13.82;2.65;;;;;;;2.71;96.78;100500.19;5055811;28;20029;-74
2021/11/26 03:25:41;;;;;;;17.92;2.30;;;;;;;2.73;95.70;100494.84;5038248;28;20035;-74
2021/11/26 03:28:08;;;;;;;16.85;2.55;;;;;;;2.74;94.27;100484.22;5055785;28;20584;-74
2021/11/26 03:30:33;;;;;;;18.95;2.95;;;;;;;2.77;93.90;100476.16;5056212;28;20388;-73
2021/11/26 03:33:00;;;;;;;14.60;2.97;;;;;;;2.86;92.34;100471.25;5055627;28;20040;-74
2021/11/26 03:35:25;;;;;;;13.25;2.42;;;;;;;2.90;91.19;100470.97;5056288;28;20045;-73
2021/11/26 03:37:51;;;;;;;15.80;2.33;;;;;;;2.98;88.45;100465.22;5056028;28;20371;-74
2021/11/26 03:40:19;;;;;;;18.17;2.38;;;;;;;3.10;87.34;100450.44;5055461;28;20457;-74
2021/11/26 03:42:45;;;;;;;12.43;2.03;;;;;;;3.14;86.93;100451.91;5055902;28;20033;-75
2021/11/26 03:45:12;;;;;;;15.95;2.50;;;;;;;3.16;87.99;100455.28;5055451;28;20033;-75
2021/11/26 03:47:38;;;;;;;9.32;2.10;;;;;;;3.14;87.06;100450.13;5055799;28;20025;-73
2021/11/26 03:50:05;;;;;;;10.40;1.92;;;;;;;3.14;88.07;100449.28;5055427;28;20100;-73
2021/11/26 03:52:31;;;;;;;21.02;2.15;;;;;;;3.22;84.69;100443.53;5055732;28;20029;-72
2021/11/26 03:54:56;;;;;;;7.80;1.98;;;;;;;3.29;82.62;100436.91;5037193;28;20044;-73
2021/11/26 03:57:21;;;;;;;8.90;2.22;;;;;;;3.31;84.52;100422.72;5055582;28;20444;-72
2021/11/26 03:59:47;;;;;;;10.88;2.13;;;;;;;3.33;85.69;100423.47;5055524;28;20459;-72
2021/11/26 04:02:12;;;;;;;18.83;2.88;;;;;;;3.38;83.63;100419.69;5037374;28;20033;-74
2021/11/26 04:04:38;;;;;;;12.07;2.33;;;;;;;3.41;82.77;100417.69;5055609;28;20103;-73
2021/11/26 04:07:03;;;;;;;9.45;2.20;;;;;;;3.48;80.92;100420.75;5055087;28;20029;-73
2021/11/26 04:09:29;;;;;;;12.88;2.78;;;;;;;3.47;82.60;100405.91;5055505;28;20025;-74
2021/11/26 04:11:54;;;;;;;6.55;1.67;;;;;;;3.41;83.11;100407.16;5037675;28;20086;-73
2021/11/26 04:14:20;;;;;;;13.85;2.53;;;;;;;3.39;82.38;100400.31;5054555;28;20053;-73
2021/11/26 04:16:47;;;;;;;14.40;2.50;;;;;;;3.38;82.40;100393.38;5055467;28;20045;-73
2021/11/26 04:19:13;;;;;;;14.77;2.45;;;;;;;3.35;80.88;100394.44;5036790;28;20048;-73
2021/11/26 04:21:38;;;;;;;10.95;2.10;;;;;;;3.37;79.76;100381.19;5054779;28;20385;-73
2021/11/26 04:24:04;;;;;;;14.55;2.63;;;;;;;3.28;81.69;100380.84;5054534;28;20028;-73
2021/11/26 04:26:30;;;;;;;13.77;2.30;;;;;;;3.22;78.99;100369.91;5054648;28;20044;-73
2021/11/26 04:28:56;;;;;;;16.80;2.22;;;;;;;3.23;77.73;100368.97;5055066;28;20044;-73
2021/11/26 04:31:21;;;;;;;6.75;1.55;;;;;;;3.23;76.07;100361.09;5053564;28;20076;-73
2021/11/26 04:33:48;;;;;;;13.18;2.22;;;;;;;3.26;75.82;100353.81;5054534;28;20065;-74
2021/11/26 04:36:14;;;;;;;14.95;2.90;;;;;;;3.25;76.49;100353.91;5054370;28;20444;-72
2021/11/26 04:38:40;;;;;;;15.32;2.75;;;;;;;3.21;77.84;100337.53;5054443;28;20094;-71
2021/11/26 04:41:06;;;;;;;11.25;2.00;;;;;;;3.13;78.72;100330.13;5054088;28;20044;-72
2021/11/26 04:43:31;;;;;;;11.32;2.08;;;;;;;3.06;79.73;100330.66;5054309;28;20032;-72
2021/11/26 04:45:56;;;;;;;9.90;2.22;;;;;;;3.05;78.79;100324.56;5054667;28;20037;-72
2021/11/26 04:48:24;;;;;;;11.95;2.00;;;;;;;3.07;80.32;100314.78;5053841;28;20041;-72
2021/11/26 04:50:50;;;;;;;11.43;1.95;;;;;;;3.11;79.51;100310.16;5054597;28;20045;-73
2021/11/26 04:53:16;;;;;;;9.40;2.15;;;;;;;3.14;80.46;100307.31;5054202;28;20032;-73
2021/11/26 04:55:42;;;;;;;14.95;2.35;;;;;;;3.12;81.03;100301.31;5054760;28;20036;-72
2021/11/26 04:58:07;;;;;;;12.27;2.35;;;;;;;3.13;80.20;100295.94;5036004;28;20043;-73
2021/11/26 05:00:33;;;;;;;9.75;2.22;;;;;;;3.18;79.04;100291.25;5054112;28;20037;-73
2021/11/26 05:02:58;;;;;;;16.30;2.50;;;;;;;3.24;78.46;100283.84;5054385;28;20491;-72
2021/11/26 05:05:24;;;;;;;27.33;2.83;;;;;;;3.23;80.17;100276.94;5053848;28;20033;-72
2021/11/26 05:07:50;;;;;;;13.55;3.15;;;;;;;3.19;79.54;100276.28;5054090;28;20033;-72
2021/11/26 05:10:19;;;;;;;13.80;2.35;;;;;;;3.22;77.96;100268.19;5035950;28;20120;-72
2021/11/26 05:12:51;;;;;;;14.68;2.83;;;;;;;3.26;79.47;100261.78;5053996;28;20033;-72
2021/11/26 05:15:24;;;;;;;24.83;2.60;;;;;;;3.28;76.04;100253.78;5053914;28;20048;-72
2021/11/26 05:17:50;;;;;;;12.13;1.95;;;;;;;3.29;75.83;100245.78;5053929;28;20155;-73
2021/11/26 05:20:15;;;;;;;16.38;1.92;;;;;;;3.29;75.71;100244.97;5053550;28;20123;-73
2021/11/26 05:22:40;;;;;;;10.57;1.90;;;;;;;3.26;75.88;100224.97;5054280;28;20086;-73
2021/11/26 05:25:06;;;;;;;15.32;1.95;;;;;;;3.27;74.96;100225.81;5054018;28;20083;-72
2021/11/26 05:27:32;;;;;;;10.75;1.85;;;;;;;3.23;77.58;100209.41;5054102;28;20033;-72
2021/11/26 05:29:57;;;;;;;9.82;1.77;;;;;;;3.18;76.29;100203.66;5053895;28;20036;-73
2021/11/26 05:32:22;;;;;;;6.95;2.10;;;;;;;3.16;74.83;100190.59;5053341;28;20063;-73
2021/11/26 05:34:48;;;;;;;6.57;1.80;;;;;;;3.14;74.93;100181.97;5053736;28;20057;-73
2021/11/26 05:37:13;;;;;;;6.40;1.58;;;;;;;3.10;74.85;100184.91;5053257;28;20052;-73
2021/11/26 05:39:39;;;;;;;12.95;1.80;;;;;;;3.04;76.46;100180.94;5053697;28;20033;-73
2021/11/26 05:42:04;;;;;;;9.98;1.77;;;;;;;3.02;74.34;100176.75;5053694;28;20392;-72
2021/11/26 05:44:30;;;;;;;7.45;1.33;;;;;;;3.04;74.29;100166.94;5053163;28;20069;-73
2021/11/26 05:46:55;;;;;;;9.63;1.50;;;;;;;3.00;75.47;100164.53;5035842;28;20032;-73
2021/11/26 05:49:21;;;;;;;12.43;1.50;;;;;;;2.98;75.33;100150.66;5035195;28;20033;-73
2021/11/26 05:51:47;;;;;;;8.68;1.75;;;;;;;2.99;74.37;100149.72;5053188;28;20477;-73
2021/11/26 05:54:12;;;;;;;6.72;1.73;;;;;;;3.02;74.38;100148.66;5052949;28;20061;-74
2021/11/26 05:56:37;;;;;;;11.27;1.60;;;;;;;3.04;76.12;100146.75;5035812;28;20036;-73
2021/11/26 05:59:03;;;;;;;6.25;1.50;;;;;;;3.05;74.84;100137.09;5053358;28;20358;-72
2021/11/26 06:01:28;;;;;;;13.32;1.90;;;;;;;3.05;75.55;100131.84;5052727;28;20044;-73
2021/11/26 06:03:54;;;;;;;7.55;1.48;;;;;;;3.04;76.58;100132.78;5035497;28;20040;-73
2021/11/26 06:06:19;;;;;;;15.95;1.98;;;;;;;3.05;76.89;100116.06;5052770;28;20111;-73
2021/11/26 06:08:45;;;;;;;12.05;1.83;;;;;;;3.05;76.79;100116.91;5053347;28;20033;-73
2021/11/26 06:11:10;;;;;;;10.63;1.77;;;;;;;3.06;75.86;100104.59;5053147;28;20086;-74
2021/11/26 06:13:36;;;;;;;7.68;1.50;;;;;;;3.10;75.55;100100.81;5034421;28;20052;-73
2021/11/26 06:16:01;;;;;;;9.43;1.70;;;;;;;3.17;77.12;100089.75;5035174;28;20037;-73
2021/11/26 06:18:26;;;;;;;8.60;1.75;;;;;;;3.18;74.83;100085.34;5052522;28;20429;-73
2021/11/26 06:20:52;;;;;;;6.53;1.58;;;;;;;3.21;74.96;100085.13;5053049;28;20499;-73
2021/11/26 06:23:17;;;;;;;8.40;1.50;;;;;;;3.21;76.18;100073.75;5037363;28;20032;-73
2021/11/26 06:25:43;;;;;;;10.18;1.77;;;;;;;3.25;76.81;100077.84;5032782;28;20044;-73
2021/11/26 06:28:08;;;;;;;5.30;1.55;;;;;;;3.27;76.18;100070.66;5032955;28;20041;-73
2021/11/26 06:30:34;;;;;;;12.98;1.88;;;;;;;3.28;75.12;100064.47;5032520;28;20094;-73
2021/11/26 06:32:59;;;;;;;8.80;1.45;;;;;;;3.28;76.50;100059.22;5032658;28;20037;-73
2021/11/26 06:35:25;;;;;;;13.02;1.83;;;;;;;3.23;76.79;100045.56;5032186;28;20038;-73
2021/11/26 06:37:52;;;;;;;13.52;2.00;;;;;;;3.18;77.91;100038.84;5014867;28;20120;-73
2021/11/26 06:40:19;;;;;;;8.40;2.03;;;;;;;3.17;78.26;100037.16;5032194;28;20485;-73
2021/11/26 06:42:45;;;;;;;14.20;2.05;;;;;;;3.16;78.05;100029.38;5032744;28;20079;-72
2021/11/26 06:45:11;;;;;;;9.60;2.33;;;;;;;3.15;79.06;100025.06;5032503;28;20386;-73
2021/11/26 06:47:37;;;;;;;6.53;1.70;;;;;;;3.13;79.33;100019.91;5032237;28;20030;-72
2021/11/26 06:50:04;;;;;;;7.82;1.67;;;;;;;3.21;78.89;100022.03;5032816;28;20038;-72
2021/11/26 06:52:29;;;;;;;13.30;2.00;;;;;;;3.29;78.97;100013.56;5031980;28;20128;-72
2021/11/26 06:54:55;;;;;;;6.65;1.40;;;;;;;3.43;78.37;100002.03;5031825;28;20038;-74
2021/11/26 06:57:21;;;;;;;7.35;2.10;;;;;;;3.51;79.58;100000.50;5032123;28;20419;-74
2021/11/26 06:59:46;;;;;;;13.35;1.83;;;;;;;3.59;79.02;100001.72;5032491;28;20029;-74
2021/11/26 07:02:12;;;;;;;9.02;2.28;;;;;;;3.63;78.46;99990.03;5015171;28;20428;-74
2021/11/26 07:04:38;;;;;;;8.70;1.90;;;;;;;3.65;80.76;99980.22;5014235;28;20080;-74
2021/11/26 07:07:03;;;;;;;7.38;2.08;;;;;;;3.63;80.17;99969.00;5032268;28;20057;-74
2021/11/26 07:09:29;;;;;;;6.97;1.80;;;;;;;3.60;81.49;99963.94;5031847;28;20494;-73
2021/11/26 07:11:54;;;;;;;4.65;1.92;;;;;;;3.60;80.92;99953.41;5032624;28;20037;-74
2021/11/26 07:14:20;;;;;;;8.57;1.63;;;;;;;3.63;79.51;99943.50;5032255;28;20099;-73
2021/11/26 07:16:45;;;;;;;9.95;2.50;;;;;;;3.65;81.52;99943.38;5032231;28;20075;-74
2021/11/26 07:19:11;;;;;;;7.40;1.95;;;;;;;3.59;81.76;99939.44;5014417;28;20128;-73
2021/11/26 07:21:36;;;;;;;9.30;2.33;;;;;;;3.50;82.94;99922.53;5014129;28;20068;-74
2021/11/26 07:24:01;;;;;;;7.18;1.83;;;;;;;3.47;82.64;99925.41;5032378;28;20030;-74
2021/11/26 07:26:28;;;;;;;13.82;2.90;;;;;;;3.46;83.13;99921.13;5031930;28;20076;-74
2021/11/26 07:28:53;;;;;;;7.47;2.42;;;;;;;3.50;82.41;99917.28;5032019;28;20095;-73
2021/11/26 07:31:19;;;;;;;11.27;1.90;;;;;;;3.58;81.78;99915.88;5032346;28;20037;-74
2021/11/26 07:33:45;;;;;;;10.02;2.03;;;;;;;3.67;80.61;99909.91;5031879;28;20037;-74
2021/11/26 07:36:11;;;;;;;10.85;2.50;;;;;;;3.71;81.36;99911.34;5032192;28;20120;-72
2021/11/26 07:38:37;;;;;;;9.13;2.03;;;;;;;3.70;81.52;99909.66;5031909;28;20068;-72
2021/11/26 07:41:02;;;;;;;8.18;1.80;;;;;;;3.67;82.23;99897.59;5014436;28;20084;-72
2021/11/26 07:43:28;;;;;;;5.93;1.60;;;;;;;3.65;81.78;99888.97;5032032;28;20034;-71
2021/11/26 07:45:55;;;;;;;10.20;2.10;;;;;;;3.65;81.12;99881.06;5032155;28;20107;-71
2021/11/26 07:48:21;;;;;;;8.80;2.20;;;;;;;3.66;82.08;99880.13;5031882;28;20458;-72
2021/11/26 07:50:46;;;;;;;10.40;2.05;;;;;;;3.64;82.46;99874.16;5031648;28;20033;-72
2021/11/26 07:53:12;;;;;;;12.60;2.05;;;;;;;3.63;82.14;99863.75;5032027;28;20083;-74
2021/11/26 07:55:37;;;;;;;7.03;1.77;;;;;;;3.64;82.19;99866.28;5031558;28;20038;-72
2021/11/26 07:58:05;;;;;;;7.05;1.65;;;;;;;3.64;82.71;99858.38;5031714;28;20068;-73
2021/11/26 08:00:30;;;;;;;6.00;1.80;;;;;;;3.67;82.74;99839.72;5031311;28;20044;-72
2021/11/26 08:03:01;;;;;;;10.40;1.98;;;;;;;3.67;83.43;99834.47;5032079;28;20033;-73
2021/11/26 08:05:26;;;;;;;7.38;1.85;;;;;;;3.69;83.96;99834.34;5032112;28;20148;-72
2021/11/26 08:07:52;;;;;;;8.32;2.00;;;;;;;3.71;84.25;99827.97;5035032;28;20120;-71
2021/11/26 08:10:18;;;;;;;10.48;1.90;;;;;;;3.80;81.93;99810.63;5035044;28;20444;-75
2021/11/26 08:12:43;;;;;;;12.68;2.45;;;;;;;3.84;82.72;99811.25;5034957;28;20029;-73
2021/11/26 08:15:12;;;;;;;11.27;1.98;;;;;;;3.84;83.67;99806.81;5035389;28;20164;-71
2021/11/26 08:17:38;;;;;;;9.75;2.38;;;;;;;3.85;84.17;99803.22;5034801;28;20085;-72
2021/11/26 08:20:04;;;;;;;16.75;1.98;;;;;;;3.84;84.06;99796.28;5035209;28;20418;-73
2021/11/26 08:22:30;;;;;;;11.23;2.25;;;;;;;3.82;85.47;99794.72;5034390;28;20117;-74
2021/11/26 08:24:55;;;;;;;12.95;2.20;;;;;;;3.75;87.40;99794.38;5016106;28;20036;-72
2021/11/26 08:27:21;;;;;;;13.32;2.38;;;;;;;3.59;88.56;99784.22;5035189;28;20091;-73
2021/11/26 08:29:46;;;;;;;8.50;2.00;;;;;;;3.46;89.00;99789.63;5017015;28;20064;-72
2021/11/26 08:32:11;;;;;;;12.13;2.83;;;;;;;3.29;91.98;99774.31;5034851;28;20179;-72
2021/11/26 08:34:37;;;;;;;9.65;1.77;;;;;;;3.15;93.89;99772.72;5034576;28;20033;-73
2021/11/26 08:37:02;;;;;;;10.80;2.70;;;;;;;3.02;94.93;99772.00;5035090;28;20034;-75
2021/11/26 08:39:28;;;;;;;10.52;2.65;;;;;;;2.95;94.85;99753.22;5034910;28;20037;-73
2021/11/26 08:41:53;;;;;;;15.88;2.15;;;;;;;2.92;94.96;99759.53;5016763;28;20038;-73
2021/11/26 08:44:19;;;;;;;16.92;2.42;;;;;;;2.92;95.53;99749.03;5034990;28;20025;-73
2021/11/26 08:46:44;;;;;;;12.57;2.30;;;;;;;2.91;95.52;99743.88;5034464;28;20037;-74
2021/11/26 08:49:09;;;;;;;16.25;2.33;;;;;;;2.96;93.84;99741.75;5034865;28;20037;-73
2021/11/26 08:51:37;;;;;;;10.65;1.80;;;;;;;2.99;93.30;99723.94;5034256;28;20037;-72
2021/11/26 08:54:03;;;;;;;9.13;1.85;;;;;;;3.03;93.07;99724.56;5017610;28;20038;-73
2021/11/26 08:56:29;;;;;;;12.90;2.00;;;;;;;3.03;94.69;99719.31;5034752;28;20034;-73
2021/11/26 08:58:55;;;;;;;12.48;2.42;;;;;;;3.05;93.85;99709.50;5034019;28;20038;-73
2021/11/26 09:01:20;;;;;;;9.18;2.42;;;;;;;3.08;94.01;99697.94;5034507;28;20109;-74
2021/11/26 09:03:47;;;;;;;8.50;1.95;;;;;;;3.10;94.60;99704.72;5034266;28;20069;-78
2021/11/26 09:06:17;;;;;;;12.95;2.72;;;;;;;3.17;93.43;99695.41;5034468;28;20037;-72
2021/11/26 09:08:43;;;;;;;8.43;2.17;;;;;;;3.27;92.48;99689.44;5033573;28;20497;-74
2021/11/26 09:11:09;;;;;;;10.07;2.17;;;;;;;3.33;93.37;99675.81;5034381;28;20450;-73
2021/11/26 09:13:34;;;;;;;11.90;2.30;;;;;;;3.38;92.45;99681.53;5034433;28;20036;-73
2021/11/26 09:16:00;;;;;;;14.55;2.50;;;;;;;3.41;93.79;99665.53;5043834;28;20040;-73
2021/11/26 09:18:27;;;;;;;7.13;2.33;;;;;;;3.44;93.64;99659.19;5053729;28;20060;-74
2021/11/26 09:20:53;;;;;;;16.33;3.50;;;;;;;3.44;92.92;99653.94;5053602;28;20041;-73
2021/11/26 09:23:20;;;;;;;13.02;2.53;;;;;;;3.48;91.69;99648.31;5036557;28;20029;-72
2021/11/26 09:25:46;;;;;;;17.20;3.40;;;;;;;3.54;91.94;99646.97;5054438;28;20029;-78
2021/11/26 09:28:12;;;;;;;14.60;2.90;;;;;;;3.52;92.15;99649.75;5037598;28;20040;-74
2021/11/26 09:30:38;;;;;;;9.95;2.65;;;;;;;3.55;91.88;99653.06;5037095;28;20029;-78
2021/11/26 09:33:04;;;;;;;11.23;2.97;;;;;;;3.55;91.65;99650.44;5054797;28;20033;-76
2021/11/26 09:35:30;;;;;;;11.23;3.50;;;;;;;3.56;91.15;99637.16;5055023;28;20029;-72
2021/11/26 09:37:59;;;;;;;9.93;3.08;;;;;;;3.54;91.91;99636.47;5054464;28;20094;-74
2021/11/26 09:40:24;;;;;;;8.30;2.90;;;;;;;3.51;93.49;99620.94;5054664;28;20025;-74
2021/11/26 09:42:50;;;;;;;9.73;3.22;;;;;;;3.52;94.33;99617.31;5053897;28;20029;-73
2021/11/26 09:45:22;;;;;;;15.20;3.83;;;;;;;3.57;94.48;99619.56;5035944;28;20127;-72
2021/11/26 09:47:51;;;;;;;13.65;3.17;;;;;;;3.63;94.08;99603.31;5035441;28;20033;-74
2021/11/26 09:50:18;;;;;;;7.72;2.60;;;;;;;3.75;93.21;99593.56;5053753;28;20441;-73
2021/11/26 09:52:44;;;;;;;9.40;1.92;;;;;;;3.79;92.18;99584.47;5041920;28;20079;-74
2021/11/26 09:55:13;;;;;;;8.88;2.70;;;;;;;3.82;93.34;99579.81;5043699;28;20025;-72
2021/11/26 09:57:39;;;;;;;10.02;2.38;;;;;;;3.81;93.07;99572.03;5041827;28;20025;-74
2021/11/26 10:00:07;;;;;;;8.55;2.10;;;;;;;3.84;93.05;99569.97;5041946;28;20461;-74
2021/11/26 10:02:33;;;;;;;11.25;2.35;;;;;;;3.95;92.50;99553.28;5043558;28;20047;-74
2021/11/26 10:05:02;;;;;;;9.00;2.72;;;;;;;3.97;92.10;99554.00;5041041;28;20025;-74
2021/11/26 10:07:28;;;;;;;7.95;2.03;;;;;;;4.02;90.23;99545.72;5036724;28;20412;-74
2021/11/26 10:09:54;;;;;;;12.02;2.83;;;;;;;4.00;90.40;99522.16;5032460;28;20029;-74
2021/11/26 10:12:20;;;;;;;11.95;2.33;;;;;;;3.93;91.64;99518.38;5032882;28;20099;-74
2021/11/26 10:14:48;;;;;;;8.82;2.33;;;;;;;3.88;91.32;99517.91;5032058;28;20040;-77
2021/11/26 10:17:13;;;;;;;8.25;2.03;;;;;;;3.87;91.58;99506.56;5032189;28;20556;-73
2021/11/26 10:19:54;;;;;;;6.28;1.70;;;;;;;3.91;90.55;99498.41;5032582;28;20049;-75
2021/11/26 10:22:28;;;;;;;9.20;2.20;;;;;;;3.87;92.00;99480.25;5030799;28;20500;-76
2021/11/26 10:24:58;;;;;;;8.75;2.25;;;;;;;3.93;92.37;99473.66;5029459;28;20132;-77
2021/11/26 10:27:38;;;;;;;9.88;1.98;;;;;;;3.92;90.55;99463.25;5030013;28;20025;-76
2021/11/26 10:30:20;;;;;;;13.48;2.25;;;;;;;3.99;90.49;99453.88;5028787;28;20175;-75
2021/11/26 10:33:18;;;;;;;12.23;2.65;;;;;;;3.99;90.68;99432.81;5029795;28;20484;-76
2021/11/26 10:35:53;;;;;;;9.32;2.22;;;;;;;4.04;90.27;99425.34;5029863;28;20029;-75
2021/11/26 10:38:22;;;;;;;15.27;2.70;;;;;;;4.09;89.68;99417.91;5029980;28;20029;-75
2021/11/26 10:40:55;;;;;;;9.20;2.42;;;;;;;4.11;89.20;99407.25;5029527;28;20124;-79
2021/11/26 10:43:33;;;;;;;10.10;2.35;;;;;;;4.08;89.05;99400.44;5030128;28;20022;-76
2021/11/26 10:46:26;;;;;;;14.15;2.85;;;;;;;4.09;89.06;99386.31;5028834;28;20056;-76
2021/11/26 10:59:53;;;;;;;11.80;2.30;;;;;;;4.22;87.81;99341.31;5029999;28;20033;-79
2021/11/26 11:02:31;;;;;;;10.48;2.90;;;;;;;4.26;88.30;99326.91;4996126;28;20034;-76
2021/11/26 11:04:56;;;;;;;14.13;3.03;;;;;;;4.26;86.38;99321.66;5029605;28;20040;-74
2021/11/26 11:07:22;;;;;;;12.85;2.55;;;;;;;4.29;87.91;99315.28;5029857;28;20041;-75
2021/11/26 11:09:52;;;;;;;8.82;2.75;;;;;;;4.33;87.32;99288.53;5029456;28;20064;-75
2021/11/26 11:12:17;;;;;;;9.55;2.42;;;;;;;4.27;87.58;99298.75;5029981;28;20043;-77
2021/11/26 11:15:04;;;;;;;7.97;2.72;;;;;;;4.22;88.13;99268.44;5029903;28;20041;-74
2021/11/26 11:17:31;;;;;;;9.77;2.80;;;;;;;4.24;87.68;99277.03;5029677;28;20056;-75
2021/11/26 11:20:01;;;;;;;12.07;3.15;;;;;;;4.22;87.90;99262.31;5029371;28;20029;-75
2021/11/26 11:22:27;;;;;;;19.33;2.58;;;;;;;4.21;86.84;99256.22;5029346;28;20049;-76
2021/11/26 11:24:53;;;;;;;8.75;2.35;;;;;;;4.18;88.85;99243.34;5027945;28;20050;-74
2021/11/26 11:27:19;;;;;;;10.13;2.67;;;;;;;4.11;89.29;99222.97;5029769;28;20088;-75
2021/11/26 11:29:45;;;;;;;8.40;2.70;;;;;;;4.10;88.60;99213.41;5029347;28;20429;-74
2021/11/26 11:32:11;;;;;;;9.50;2.53;;;;;;;4.10;88.86;99218.66;5029025;28;20159;-73
2021/11/26 11:34:37;;;;;;;15.25;2.53;;;;;;;4.11;89.63;99207.19;5029448;28;20040;-75
2021/11/26 11:37:07;;;;;;;8.55;2.53;;;;;;;4.13;89.28;99197.34;5028923;28;20033;-72